sensor_id;sensor_type;location;lat;lon;timestamp;P1;durP1;ratioP1;P2;durP2;ratioP2
577;SDS011;275;48.492;9.214;2022-12-10T00:00:34;56.03;;;50.05;;
577;SDS011;275;48.492;9.214;2022-12-10T00:03:01;55.95;;;50.08;;
577;SDS011;275;48.492;9.214;2022-12-10T00:05:28;52.63;;;47.33;;
577;SDS011;275;48.492;9.214;2022-12-10T00:07:55;52.13;;;46.40;;
577;SDS011;275;48.492;9.214;2022-12-10T00:10:21;55.40;;;49.63;;
577;SDS011;275;48.492;9.214;2022-12-10T00:12:49;54.97;;;49.35;;
577;SDS011;275;48.492;9.214;2022-12-10T00:15:15;54.15;;;48.55;;
577;SDS011;275;48.492;9.214;2022-12-10T00:17:44;50.88;;;45.88;;
577;SDS011;275;48.492;9.214;2022-12-10T00:20:11;57.05;;;48.25;;
577;SDS011;275;48.492;9.214;2022-12-10T00:22:37;51.03;;;45.30;;
577;SDS011;275;48.492;9.214;2022-12-10T00:25:04;58.28;;;52.20;;
577;SDS011;275;48.492;9.214;2022-12-10T00:27:31;54.95;;;49.25;;
577;SDS011;275;48.492;9.214;2022-12-10T00:29:58;60.70;;;54.13;;
577;SDS011;275;48.492;9.214;2022-12-10T00:32:25;56.58;;;50.42;;
577;SDS011;275;48.492;9.214;2022-12-10T00:34:53;55.28;;;49.35;;
577;SDS011;275;48.492;9.214;2022-12-10T00:37:20;56.55;;;50.50;;
577;SDS011;275;48.492;9.214;2022-12-10T00:39:47;53.88;;;48.03;;
577;SDS011;275;48.492;9.214;2022-12-10T00:42:14;56.90;;;50.90;;
577;SDS011;275;48.492;9.214;2022-12-10T00:44:40;58.00;;;51.30;;
577;SDS011;275;48.492;9.214;2022-12-10T00:47:07;54.63;;;49.13;;
577;SDS011;275;48.492;9.214;2022-12-10T00:49:34;54.95;;;49.15;;
577;SDS011;275;48.492;9.214;2022-12-10T00:52:02;57.72;;;51.40;;
577;SDS011;275;48.492;9.214;2022-12-10T00:54:29;55.45;;;49.65;;
577;SDS011;275;48.492;9.214;2022-12-10T00:56:56;58.65;;;52.78;;
577;SDS011;275;48.492;9.214;2022-12-10T00:59:22;57.85;;;51.53;;
577;SDS011;275;48.492;9.214;2022-12-10T01:01:49;57.85;;;51.65;;
577;SDS011;275;48.492;9.214;2022-12-10T01:04:17;55.10;;;49.30;;
577;SDS011;275;48.492;9.214;2022-12-10T01:06:44;58.38;;;51.10;;
577;SDS011;275;48.492;9.214;2022-12-10T01:09:14;56.63;;;50.60;;
577;SDS011;275;48.492;9.214;2022-12-10T01:11:43;57.67;;;51.47;;
577;SDS011;275;48.492;9.214;2022-12-10T01:14:12;53.03;;;47.00;;
577;SDS011;275;48.492;9.214;2022-12-10T01:16:42;54.47;;;48.90;;
577;SDS011;275;48.492;9.214;2022-12-10T01:19:09;52.22;;;46.88;;
577;SDS011;275;48.492;9.214;2022-12-10T01:21:36;53.38;;;48.05;;
577;SDS011;275;48.492;9.214;2022-12-10T01:24:03;52.30;;;46.90;;
577;SDS011;275;48.492;9.214;2022-12-10T01:26:32;54.30;;;48.85;;
577;SDS011;275;48.492;9.214;2022-12-10T01:29:01;52.80;;;47.10;;
577;SDS011;275;48.492;9.214;2022-12-10T01:31:30;52.45;;;46.80;;
577;SDS011;275;48.492;9.214;2022-12-10T01:33:59;52.58;;;47.17;;
577;SDS011;275;48.492;9.214;2022-12-10T01:36:27;56.00;;;49.70;;
577;SDS011;275;48.492;9.214;2022-12-10T01:38:55;53.03;;;47.60;;
577;SDS011;275;48.492;9.214;2022-12-10T01:41:23;54.90;;;49.30;;
577;SDS011;275;48.492;9.214;2022-12-10T01:43:55;52.42;;;46.90;;
577;SDS011;275;48.492;9.214;2022-12-10T01:46:23;54.97;;;49.33;;
577;SDS011;275;48.492;9.214;2022-12-10T01:48:51;54.10;;;48.60;;
577;SDS011;275;48.492;9.214;2022-12-10T01:51:19;54.67;;;49.08;;
577;SDS011;275;48.492;9.214;2022-12-10T01:53:46;56.22;;;50.65;;
577;SDS011;275;48.492;9.214;2022-12-10T01:56:15;53.97;;;48.08;;
577;SDS011;275;48.492;9.214;2022-12-10T01:58:43;55.05;;;49.05;;
577;SDS011;275;48.492;9.214;2022-12-10T02:01:13;54.22;;;48.53;;
577;SDS011;275;48.492;9.214;2022-12-10T02:03:50;52.10;;;46.80;;
577;SDS011;275;48.492;9.214;2022-12-10T02:06:25;52.85;;;47.30;;
577;SDS011;275;48.492;9.214;2022-12-10T02:09:01;58.13;;;51.25;;
577;SDS011;275;48.492;9.214;2022-12-10T02:11:36;54.80;;;48.72;;
577;SDS011;275;48.492;9.214;2022-12-10T02:14:09;56.72;;;50.72;;
577;SDS011;275;48.492;9.214;2022-12-10T02:16:44;53.75;;;47.85;;
577;SDS011;275;48.492;9.214;2022-12-10T02:19:18;54.53;;;48.25;;
577;SDS011;275;48.492;9.214;2022-12-10T02:21:51;54.63;;;48.95;;
577;SDS011;275;48.492;9.214;2022-12-10T02:24:22;54.47;;;48.70;;
577;SDS011;275;48.492;9.214;2022-12-10T02:26:55;55.22;;;49.38;;
577;SDS011;275;48.492;9.214;2022-12-10T02:29:29;58.58;;;52.17;;
577;SDS011;275;48.492;9.214;2022-12-10T02:31:59;60.58;;;50.70;;
577;SDS011;275;48.492;9.214;2022-12-10T02:34:30;55.53;;;49.53;;
577;SDS011;275;48.492;9.214;2022-12-10T02:37:00;56.40;;;50.50;;
577;SDS011;275;48.492;9.214;2022-12-10T02:39:35;57.10;;;50.92;;
577;SDS011;275;48.492;9.214;2022-12-10T02:42:08;59.20;;;52.75;;
577;SDS011;275;48.492;9.214;2022-12-10T02:44:37;59.83;;;53.28;;
577;SDS011;275;48.492;9.214;2022-12-10T02:47:07;57.42;;;51.28;;
577;SDS011;275;48.492;9.214;2022-12-10T02:49:35;58.72;;;52.55;;
577;SDS011;275;48.492;9.214;2022-12-10T02:52:08;60.15;;;52.35;;
577;SDS011;275;48.492;9.214;2022-12-10T02:54:37;60.83;;;53.67;;
577;SDS011;275;48.492;9.214;2022-12-10T03:02:50;66.40;;;56.83;;
577;SDS011;275;48.492;9.214;2022-12-10T03:05:33;65.30;;;55.55;;
577;SDS011;275;48.492;9.214;2022-12-10T03:08:08;62.65;;;55.72;;
577;SDS011;275;48.492;9.214;2022-12-10T03:10:40;63.70;;;55.40;;
577;SDS011;275;48.492;9.214;2022-12-10T03:13:11;75.38;;;58.58;;
577;SDS011;275;48.492;9.214;2022-12-10T03:15:42;76.97;;;59.80;;
577;SDS011;275;48.492;9.214;2022-12-10T03:18:11;72.60;;;59.45;;
577;SDS011;275;48.492;9.214;2022-12-10T03:20:42;73.75;;;60.65;;
577;SDS011;275;48.492;9.214;2022-12-10T03:23:12;88.78;;;63.95;;
577;SDS011;275;48.492;9.214;2022-12-10T03:25:41;76.80;;;62.40;;
577;SDS011;275;48.492;9.214;2022-12-10T03:28:09;85.43;;;62.17;;
577;SDS011;275;48.492;9.214;2022-12-10T03:30:36;86.35;;;65.50;;
577;SDS011;275;48.492;9.214;2022-12-10T03:33:06;78.18;;;61.63;;
577;SDS011;275;48.492;9.214;2022-12-10T03:35:34;78.43;;;63.80;;
577;SDS011;275;48.492;9.214;2022-12-10T03:38:01;74.15;;;60.38;;
577;SDS011;275;48.492;9.214;2022-12-10T03:40:28;79.13;;;61.88;;
577;SDS011;275;48.492;9.214;2022-12-10T03:42:55;78.80;;;59.13;;
577;SDS011;275;48.492;9.214;2022-12-10T03:45:22;71.32;;;61.83;;
577;SDS011;275;48.492;9.214;2022-12-10T03:47:49;70.70;;;61.15;;
577;SDS011;275;48.492;9.214;2022-12-10T03:50:20;71.32;;;60.92;;
577;SDS011;275;48.492;9.214;2022-12-10T03:52:47;73.05;;;61.38;;
577;SDS011;275;48.492;9.214;2022-12-10T03:55:14;66.38;;;58.25;;
577;SDS011;275;48.492;9.214;2022-12-10T03:57:41;71.78;;;61.45;;
577;SDS011;275;48.492;9.214;2022-12-10T04:00:08;65.45;;;58.20;;
577;SDS011;275;48.492;9.214;2022-12-10T04:02:35;65.10;;;55.67;;
577;SDS011;275;48.492;9.214;2022-12-10T04:05:02;61.83;;;54.42;;
577;SDS011;275;48.492;9.214;2022-12-10T04:07:33;62.88;;;56.10;;
577;SDS011;275;48.492;9.214;2022-12-10T04:10:00;62.78;;;55.92;;
577;SDS011;275;48.492;9.214;2022-12-10T04:12:26;58.15;;;51.95;;
577;SDS011;275;48.492;9.214;2022-12-10T04:14:53;60.45;;;53.45;;
577;SDS011;275;48.492;9.214;2022-12-10T04:17:37;59.10;;;52.65;;
577;SDS011;275;48.492;9.214;2022-12-10T04:20:05;65.75;;;58.42;;
577;SDS011;275;48.492;9.214;2022-12-10T04:22:53;60.13;;;53.78;;
577;SDS011;275;48.492;9.214;2022-12-10T04:25:38;58.80;;;52.65;;
577;SDS011;275;48.492;9.214;2022-12-10T04:28:22;57.78;;;51.95;;
577;SDS011;275;48.492;9.214;2022-12-10T04:30:48;59.10;;;53.13;;
577;SDS011;275;48.492;9.214;2022-12-10T04:33:15;58.67;;;52.67;;
577;SDS011;275;48.492;9.214;2022-12-10T04:35:42;59.40;;;53.08;;
577;SDS011;275;48.492;9.214;2022-12-10T04:38:10;61.45;;;54.97;;
577;SDS011;275;48.492;9.214;2022-12-10T04:40:37;57.03;;;50.97;;
577;SDS011;275;48.492;9.214;2022-12-10T04:43:04;59.42;;;53.28;;
577;SDS011;275;48.492;9.214;2022-12-10T04:45:33;56.22;;;50.35;;
577;SDS011;275;48.492;9.214;2022-12-10T04:48:00;59.20;;;53.20;;
577;SDS011;275;48.492;9.214;2022-12-10T04:50:27;57.08;;;51.38;;
577;SDS011;275;48.492;9.214;2022-12-10T04:52:54;56.30;;;50.55;;
577;SDS011;275;48.492;9.214;2022-12-10T04:55:22;57.67;;;51.85;;
577;SDS011;275;48.492;9.214;2022-12-10T04:57:49;54.45;;;48.85;;
577;SDS011;275;48.492;9.214;2022-12-10T05:00:16;54.75;;;48.97;;
577;SDS011;275;48.492;9.214;2022-12-10T05:02:43;54.38;;;48.80;;
577;SDS011;275;48.492;9.214;2022-12-10T05:05:10;55.30;;;49.83;;
577;SDS011;275;48.492;9.214;2022-12-10T05:07:37;53.92;;;48.20;;
577;SDS011;275;48.492;9.214;2022-12-10T05:10:04;53.47;;;47.90;;
577;SDS011;275;48.492;9.214;2022-12-10T05:12:33;52.53;;;47.22;;
577;SDS011;275;48.492;9.214;2022-12-10T05:15:00;55.58;;;49.85;;
577;SDS011;275;48.492;9.214;2022-12-10T05:17:26;51.92;;;46.75;;
577;SDS011;275;48.492;9.214;2022-12-10T05:19:53;56.05;;;50.15;;
577;SDS011;275;48.492;9.214;2022-12-10T05:22:20;57.15;;;51.40;;
577;SDS011;275;48.492;9.214;2022-12-10T05:25:04;54.40;;;48.95;;
577;SDS011;275;48.492;9.214;2022-12-10T05:27:33;56.20;;;50.40;;
577;SDS011;275;48.492;9.214;2022-12-10T05:30:00;55.50;;;49.53;;
577;SDS011;275;48.492;9.214;2022-12-10T05:32:27;56.28;;;50.28;;
577;SDS011;275;48.492;9.214;2022-12-10T05:34:53;57.35;;;51.40;;
577;SDS011;275;48.492;9.214;2022-12-10T05:37:24;59.80;;;53.58;;
577;SDS011;275;48.492;9.214;2022-12-10T05:39:51;55.53;;;49.72;;
577;SDS011;275;48.492;9.214;2022-12-10T05:42:18;55.72;;;49.83;;
577;SDS011;275;48.492;9.214;2022-12-10T05:44:46;56.33;;;50.17;;
577;SDS011;275;48.492;9.214;2022-12-10T05:47:13;56.22;;;50.38;;
577;SDS011;275;48.492;9.214;2022-12-10T05:49:40;56.35;;;50.60;;
577;SDS011;275;48.492;9.214;2022-12-10T05:52:06;55.03;;;49.40;;
577;SDS011;275;48.492;9.214;2022-12-10T05:54:34;52.97;;;47.47;;
577;SDS011;275;48.492;9.214;2022-12-10T05:57:01;57.20;;;51.20;;
577;SDS011;275;48.492;9.214;2022-12-10T05:59:27;53.45;;;47.75;;
577;SDS011;275;48.492;9.214;2022-12-10T06:01:56;54.47;;;49.03;;
577;SDS011;275;48.492;9.214;2022-12-10T06:04:22;57.50;;;51.45;;
577;SDS011;275;48.492;9.214;2022-12-10T06:06:49;55.03;;;49.63;;
577;SDS011;275;48.492;9.214;2022-12-10T06:09:16;55.75;;;50.13;;
577;SDS011;275;48.492;9.214;2022-12-10T06:11:43;56.08;;;50.25;;
577;SDS011;275;48.492;9.214;2022-12-10T06:14:10;58.70;;;52.70;;
577;SDS011;275;48.492;9.214;2022-12-10T06:16:38;57.25;;;51.55;;
577;SDS011;275;48.492;9.214;2022-12-10T06:19:08;54.17;;;48.05;;
577;SDS011;275;48.492;9.214;2022-12-10T06:21:35;55.28;;;49.67;;
577;SDS011;275;48.492;9.214;2022-12-10T06:24:01;56.03;;;50.13;;
577;SDS011;275;48.492;9.214;2022-12-10T06:26:28;54.15;;;48.65;;
577;SDS011;275;48.492;9.214;2022-12-10T06:28:55;54.67;;;49.13;;
577;SDS011;275;48.492;9.214;2022-12-10T06:31:22;54.60;;;49.10;;
577;SDS011;275;48.492;9.214;2022-12-10T06:33:50;53.08;;;47.42;;
577;SDS011;275;48.492;9.214;2022-12-10T06:36:18;54.50;;;48.58;;
577;SDS011;275;48.492;9.214;2022-12-10T06:38:45;53.22;;;47.83;;
577;SDS011;275;48.492;9.214;2022-12-10T06:41:15;56.45;;;50.58;;
577;SDS011;275;48.492;9.214;2022-12-10T06:43:45;50.55;;;45.55;;
577;SDS011;275;48.492;9.214;2022-12-10T06:46:13;56.10;;;50.17;;
577;SDS011;275;48.492;9.214;2022-12-10T06:48:40;54.03;;;48.13;;
577;SDS011;275;48.492;9.214;2022-12-10T06:51:08;53.03;;;47.63;;
577;SDS011;275;48.492;9.214;2022-12-10T06:53:38;53.28;;;47.88;;
577;SDS011;275;48.492;9.214;2022-12-10T06:56:07;53.92;;;48.65;;
577;SDS011;275;48.492;9.214;2022-12-10T06:58:39;51.20;;;45.97;;
577;SDS011;275;48.492;9.214;2022-12-10T07:01:07;54.85;;;49.35;;
577;SDS011;275;48.492;9.214;2022-12-10T07:03:36;55.45;;;49.83;;
577;SDS011;275;48.492;9.214;2022-12-10T07:06:04;54.67;;;49.20;;
577;SDS011;275;48.492;9.214;2022-12-10T07:08:31;53.65;;;48.22;;
577;SDS011;275;48.492;9.214;2022-12-10T07:11:02;51.83;;;46.53;;
577;SDS011;275;48.492;9.214;2022-12-10T07:13:30;47.20;;;42.60;;
577;SDS011;275;48.492;9.214;2022-12-10T07:15:57;53.25;;;48.15;;
577;SDS011;275;48.492;9.214;2022-12-10T07:18:24;52.47;;;47.25;;
577;SDS011;275;48.492;9.214;2022-12-10T07:20:51;52.13;;;47.00;;
577;SDS011;275;48.492;9.214;2022-12-10T07:23:18;50.20;;;45.40;;
577;SDS011;275;48.492;9.214;2022-12-10T07:25:45;52.17;;;46.88;;
577;SDS011;275;48.492;9.214;2022-12-10T07:28:13;50.17;;;45.30;;
577;SDS011;275;48.492;9.214;2022-12-10T07:30:41;51.72;;;46.63;;
577;SDS011;275;48.492;9.214;2022-12-10T07:33:07;55.95;;;49.33;;
577;SDS011;275;48.492;9.214;2022-12-10T07:35:34;49.20;;;44.38;;
577;SDS011;275;48.492;9.214;2022-12-10T07:38:04;49.50;;;44.70;;
577;SDS011;275;48.492;9.214;2022-12-10T07:40:31;49.75;;;44.97;;
577;SDS011;275;48.492;9.214;2022-12-10T07:42:58;47.20;;;42.60;;
577;SDS011;275;48.492;9.214;2022-12-10T07:45:26;50.65;;;45.65;;
577;SDS011;275;48.492;9.214;2022-12-10T07:47:52;49.40;;;44.60;;
577;SDS011;275;48.492;9.214;2022-12-10T07:50:19;47.10;;;42.67;;
577;SDS011;275;48.492;9.214;2022-12-10T07:52:46;47.33;;;42.83;;
577;SDS011;275;48.492;9.214;2022-12-10T07:55:13;47.40;;;43.00;;
577;SDS011;275;48.492;9.214;2022-12-10T07:57:40;45.40;;;41.15;;
577;SDS011;275;48.492;9.214;2022-12-10T08:00:07;46.33;;;41.95;;
577;SDS011;275;48.492;9.214;2022-12-10T08:02:36;45.45;;;41.17;;
577;SDS011;275;48.492;9.214;2022-12-10T08:05:03;47.75;;;42.92;;
577;SDS011;275;48.492;9.214;2022-12-10T08:07:30;46.30;;;42.13;;
577;SDS011;275;48.492;9.214;2022-12-10T08:09:58;46.72;;;42.13;;
577;SDS011;275;48.492;9.214;2022-12-10T08:12:25;45.30;;;41.25;;
577;SDS011;275;48.492;9.214;2022-12-10T08:14:51;46.63;;;42.17;;
577;SDS011;275;48.492;9.214;2022-12-10T08:17:18;45.10;;;40.55;;
577;SDS011;275;48.492;9.214;2022-12-10T08:19:46;46.42;;;41.75;;
577;SDS011;275;48.492;9.214;2022-12-10T08:22:14;45.42;;;41.13;;
577;SDS011;275;48.492;9.214;2022-12-10T08:24:41;44.80;;;40.28;;
577;SDS011;275;48.492;9.214;2022-12-10T08:27:08;42.55;;;38.47;;
577;SDS011;275;48.492;9.214;2022-12-10T08:29:34;45.05;;;40.83;;
577;SDS011;275;48.492;9.214;2022-12-10T08:32:01;46.65;;;42.35;;
577;SDS011;275;48.492;9.214;2022-12-10T08:34:28;46.10;;;41.85;;
577;SDS011;275;48.492;9.214;2022-12-10T08:36:56;50.80;;;45.95;;
577;SDS011;275;48.492;9.214;2022-12-10T08:39:23;44.95;;;40.88;;
577;SDS011;275;48.492;9.214;2022-12-10T08:41:50;43.15;;;38.85;;
577;SDS011;275;48.492;9.214;2022-12-10T08:44:17;43.70;;;39.67;;
577;SDS011;275;48.492;9.214;2022-12-10T08:46:44;41.50;;;37.80;;
577;SDS011;275;48.492;9.214;2022-12-10T08:49:11;43.22;;;39.08;;
577;SDS011;275;48.492;9.214;2022-12-10T08:51:38;44.55;;;40.40;;
577;SDS011;275;48.492;9.214;2022-12-10T08:54:06;44.70;;;40.53;;
577;SDS011;275;48.492;9.214;2022-12-10T08:56:33;43.13;;;39.22;;
577;SDS011;275;48.492;9.214;2022-12-10T08:59:01;43.88;;;39.70;;
577;SDS011;275;48.492;9.214;2022-12-10T09:01:28;45.22;;;41.10;;
577;SDS011;275;48.492;9.214;2022-12-10T09:03:55;50.75;;;45.78;;
577;SDS011;275;48.492;9.214;2022-12-10T09:06:22;52.22;;;47.20;;
577;SDS011;275;48.492;9.214;2022-12-10T09:08:50;43.75;;;39.70;;
577;SDS011;275;48.492;9.214;2022-12-10T09:11:19;45.58;;;41.47;;
577;SDS011;275;48.492;9.214;2022-12-10T09:13:47;46.65;;;42.25;;
577;SDS011;275;48.492;9.214;2022-12-10T09:16:14;45.78;;;41.53;;
577;SDS011;275;48.492;9.214;2022-12-10T09:18:41;41.97;;;37.95;;
577;SDS011;275;48.492;9.214;2022-12-10T09:21:09;43.20;;;39.35;;
577;SDS011;275;48.492;9.214;2022-12-10T09:23:37;41.92;;;38.10;;
577;SDS011;275;48.492;9.214;2022-12-10T09:26:05;41.60;;;37.75;;
577;SDS011;275;48.492;9.214;2022-12-10T09:28:34;40.95;;;37.15;;
577;SDS011;275;48.492;9.214;2022-12-10T09:31:01;40.83;;;37.17;;
577;SDS011;275;48.492;9.214;2022-12-10T09:33:29;43.70;;;39.70;;
577;SDS011;275;48.492;9.214;2022-12-10T09:35:57;43.67;;;39.60;;
577;SDS011;275;48.492;9.214;2022-12-10T09:38:24;41.75;;;37.75;;
577;SDS011;275;48.492;9.214;2022-12-10T09:40:51;38.33;;;34.92;;
577;SDS011;275;48.492;9.214;2022-12-10T09:43:27;39.70;;;35.90;;
577;SDS011;275;48.492;9.214;2022-12-10T09:46:06;35.97;;;32.60;;
577;SDS011;275;48.492;9.214;2022-12-10T09:48:51;37.53;;;34.03;;
577;SDS011;275;48.492;9.214;2022-12-10T09:51:27;38.58;;;34.83;;
577;SDS011;275;48.492;9.214;2022-12-10T09:53:57;39.42;;;35.92;;
577;SDS011;275;48.492;9.214;2022-12-10T09:56:26;37.33;;;33.83;;
577;SDS011;275;48.492;9.214;2022-12-10T09:58:57;37.88;;;34.55;;
577;SDS011;275;48.492;9.214;2022-12-10T10:01:28;39.28;;;35.60;;
577;SDS011;275;48.492;9.214;2022-12-10T10:03:58;39.03;;;35.47;;
577;SDS011;275;48.492;9.214;2022-12-10T10:06:25;39.63;;;35.75;;
577;SDS011;275;48.492;9.214;2022-12-10T10:08:54;38.15;;;34.70;;
577;SDS011;275;48.492;9.214;2022-12-10T10:11:24;40.70;;;37.10;;
577;SDS011;275;48.492;9.214;2022-12-10T10:13:55;41.40;;;37.55;;
577;SDS011;275;48.492;9.214;2022-12-10T10:16:26;41.63;;;37.67;;
577;SDS011;275;48.492;9.214;2022-12-10T10:18:58;49.63;;;44.20;;
577;SDS011;275;48.492;9.214;2022-12-10T10:21:27;42.58;;;38.83;;
577;SDS011;275;48.492;9.214;2022-12-10T10:23:59;42.13;;;38.42;;
577;SDS011;275;48.492;9.214;2022-12-10T10:26:27;39.28;;;35.53;;
577;SDS011;275;48.492;9.214;2022-12-10T10:28:55;41.72;;;38.00;;
577;SDS011;275;48.492;9.214;2022-12-10T10:31:27;40.28;;;36.78;;
577;SDS011;275;48.492;9.214;2022-12-10T10:33:56;39.50;;;35.80;;
577;SDS011;275;48.492;9.214;2022-12-10T10:36:24;37.90;;;34.20;;
577;SDS011;275;48.492;9.214;2022-12-10T10:38:53;40.28;;;36.72;;
577;SDS011;275;48.492;9.214;2022-12-10T10:41:19;46.30;;;38.35;;
577;SDS011;275;48.492;9.214;2022-12-10T10:43:46;119.88;;;45.42;;
577;SDS011;275;48.492;9.214;2022-12-10T10:46:20;78.85;;;46.08;;
577;SDS011;275;48.492;9.214;2022-12-10T10:48:50;108.45;;;45.60;;
577;SDS011;275;48.492;9.214;2022-12-10T10:51:18;39.30;;;35.22;;
577;SDS011;275;48.492;9.214;2022-12-10T10:53:48;39.92;;;36.25;;
577;SDS011;275;48.492;9.214;2022-12-10T10:56:17;40.40;;;36.47;;
577;SDS011;275;48.492;9.214;2022-12-10T10:58:49;40.20;;;36.50;;
577;SDS011;275;48.492;9.214;2022-12-10T11:01:19;40.90;;;37.00;;
577;SDS011;275;48.492;9.214;2022-12-10T11:03:47;38.05;;;34.45;;
577;SDS011;275;48.492;9.214;2022-12-10T11:06:16;39.97;;;36.40;;
577;SDS011;275;48.492;9.214;2022-12-10T11:08:44;37.40;;;34.00;;
577;SDS011;275;48.492;9.214;2022-12-10T11:11:17;37.00;;;33.65;;
577;SDS011;275;48.492;9.214;2022-12-10T11:13:46;41.72;;;37.90;;
577;SDS011;275;48.492;9.214;2022-12-10T11:16:16;38.40;;;34.90;;
577;SDS011;275;48.492;9.214;2022-12-10T11:18:51;37.90;;;34.47;;
577;SDS011;275;48.492;9.214;2022-12-10T11:21:24;38.05;;;34.53;;
577;SDS011;275;48.492;9.214;2022-12-10T11:23:52;39.60;;;36.05;;
577;SDS011;275;48.492;9.214;2022-12-10T11:26:30;40.15;;;36.45;;
577;SDS011;275;48.492;9.214;2022-12-10T11:29:14;40.25;;;36.55;;
577;SDS011;275;48.492;9.214;2022-12-10T11:31:55;43.35;;;38.45;;
577;SDS011;275;48.492;9.214;2022-12-10T11:34:34;57.83;;;38.75;;
577;SDS011;275;48.492;9.214;2022-12-10T11:37:12;43.92;;;36.97;;
577;SDS011;275;48.492;9.214;2022-12-10T11:39:49;39.45;;;36.05;;
577;SDS011;275;48.492;9.214;2022-12-10T11:42:25;41.78;;;37.90;;
577;SDS011;275;48.492;9.214;2022-12-10T11:45:03;40.35;;;36.70;;
577;SDS011;275;48.492;9.214;2022-12-10T11:47:42;39.25;;;35.85;;
577;SDS011;275;48.492;9.214;2022-12-10T11:50:25;39.97;;;36.42;;
577;SDS011;275;48.492;9.214;2022-12-10T11:53:02;38.00;;;34.38;;
577;SDS011;275;48.492;9.214;2022-12-10T11:55:56;36.20;;;32.90;;
577;SDS011;275;48.492;9.214;2022-12-10T11:58:37;39.95;;;36.25;;
577;SDS011;275;48.492;9.214;2022-12-10T12:01:17;44.00;;;39.17;;
577;SDS011;275;48.492;9.214;2022-12-10T12:04:00;38.83;;;35.33;;
577;SDS011;275;48.492;9.214;2022-12-10T12:06:52;42.15;;;38.35;;
577;SDS011;275;48.492;9.214;2022-12-10T12:09:56;36.40;;;33.05;;
577;SDS011;275;48.492;9.214;2022-12-10T12:12:37;39.80;;;35.85;;
577;SDS011;275;48.492;9.214;2022-12-10T12:15:15;32.47;;;29.48;;
577;SDS011;275;48.492;9.214;2022-12-10T12:17:55;32.60;;;29.50;;
577;SDS011;275;48.492;9.214;2022-12-10T12:20:28;34.92;;;31.83;;
577;SDS011;275;48.492;9.214;2022-12-10T12:23:02;35.75;;;32.42;;
577;SDS011;275;48.492;9.214;2022-12-10T12:25:44;54.75;;;37.15;;
577;SDS011;275;48.492;9.214;2022-12-10T12:28:14;34.30;;;31.08;;
577;SDS011;275;48.492;9.214;2022-12-10T12:30:48;34.58;;;31.40;;
577;SDS011;275;48.492;9.214;2022-12-10T12:33:26;33.90;;;30.88;;
577;SDS011;275;48.492;9.214;2022-12-10T12:35:55;33.88;;;30.98;;
577;SDS011;275;48.492;9.214;2022-12-10T12:38:30;30.55;;;27.80;;
577;SDS011;275;48.492;9.214;2022-12-10T12:41:04;32.20;;;29.35;;
577;SDS011;275;48.492;9.214;2022-12-10T12:43:39;32.33;;;29.52;;
577;SDS011;275;48.492;9.214;2022-12-10T12:46:16;32.97;;;30.15;;
577;SDS011;275;48.492;9.214;2022-12-10T12:48:50;34.50;;;30.80;;
577;SDS011;275;48.492;9.214;2022-12-10T12:51:24;27.70;;;25.30;;
577;SDS011;275;48.492;9.214;2022-12-10T12:53:55;27.00;;;24.60;;
577;SDS011;275;48.492;9.214;2022-12-10T12:56:25;30.00;;;27.30;;
577;SDS011;275;48.492;9.214;2022-12-10T12:59:04;26.63;;;24.23;;
577;SDS011;275;48.492;9.214;2022-12-10T13:01:39;27.63;;;25.13;;
577;SDS011;275;48.492;9.214;2022-12-10T13:04:10;27.20;;;24.80;;
577;SDS011;275;48.492;9.214;2022-12-10T13:06:38;24.05;;;21.80;;
577;SDS011;275;48.492;9.214;2022-12-10T13:09:16;26.38;;;24.05;;
577;SDS011;275;48.492;9.214;2022-12-10T13:15:02;30.95;;;28.13;;
577;SDS011;275;48.492;9.214;2022-12-10T13:20:31;29.30;;;26.80;;
577;SDS011;275;48.492;9.214;2022-12-10T13:23:01;27.83;;;25.33;;
577;SDS011;275;48.492;9.214;2022-12-10T13:25:55;29.02;;;26.48;;
577;SDS011;275;48.492;9.214;2022-12-10T13:28:26;30.58;;;27.90;;
577;SDS011;275;48.492;9.214;2022-12-10T13:31:07;26.15;;;23.75;;
577;SDS011;275;48.492;9.214;2022-12-10T13:33:45;31.00;;;27.75;;
577;SDS011;275;48.492;9.214;2022-12-10T13:36:19;28.40;;;25.80;;
577;SDS011;275;48.492;9.214;2022-12-10T13:38:55;29.80;;;27.05;;
577;SDS011;275;48.492;9.214;2022-12-10T13:41:39;35.15;;;31.85;;
577;SDS011;275;48.492;9.214;2022-12-10T13:44:31;26.90;;;24.45;;
577;SDS011;275;48.492;9.214;2022-12-10T13:47:21;28.30;;;25.73;;
577;SDS011;275;48.492;9.214;2022-12-10T13:49:52;28.25;;;25.80;;
577;SDS011;275;48.492;9.214;2022-12-10T13:52:23;28.15;;;25.63;;
577;SDS011;275;48.492;9.214;2022-12-10T13:55:08;35.72;;;31.90;;
577;SDS011;275;48.492;9.214;2022-12-10T13:57:53;28.58;;;25.95;;
577;SDS011;275;48.492;9.214;2022-12-10T14:00:31;29.88;;;27.25;;
577;SDS011;275;48.492;9.214;2022-12-10T14:03:13;27.65;;;25.15;;
577;SDS011;275;48.492;9.214;2022-12-10T14:06:09;30.02;;;27.33;;
577;SDS011;275;48.492;9.214;2022-12-10T14:08:42;27.80;;;25.20;;
577;SDS011;275;48.492;9.214;2022-12-10T14:11:20;26.45;;;24.10;;
577;SDS011;275;48.492;9.214;2022-12-10T14:13:51;29.63;;;27.10;;
577;SDS011;275;48.492;9.214;2022-12-10T14:16:22;29.40;;;26.90;;
577;SDS011;275;48.492;9.214;2022-12-10T14:18:56;28.50;;;26.00;;
577;SDS011;275;48.492;9.214;2022-12-10T14:21:31;29.00;;;26.50;;
577;SDS011;275;48.492;9.214;2022-12-10T14:24:01;27.95;;;25.55;;
577;SDS011;275;48.492;9.214;2022-12-10T14:26:29;30.23;;;27.63;;
577;SDS011;275;48.492;9.214;2022-12-10T14:28:59;28.20;;;25.60;;
577;SDS011;275;48.492;9.214;2022-12-10T14:31:28;28.73;;;26.20;;
577;SDS011;275;48.492;9.214;2022-12-10T14:34:01;28.92;;;26.20;;
577;SDS011;275;48.492;9.214;2022-12-10T14:36:31;28.17;;;25.67;;
577;SDS011;275;48.492;9.214;2022-12-10T14:39:00;29.95;;;27.25;;
577;SDS011;275;48.492;9.214;2022-12-10T14:41:28;43.30;;;39.45;;
577;SDS011;275;48.492;9.214;2022-12-10T14:43:57;33.55;;;30.45;;
577;SDS011;275;48.492;9.214;2022-12-10T14:46:31;29.70;;;27.08;;
577;SDS011;275;48.492;9.214;2022-12-10T14:49:04;27.90;;;25.40;;
577;SDS011;275;48.492;9.214;2022-12-10T14:51:32;28.17;;;25.67;;
577;SDS011;275;48.492;9.214;2022-12-10T14:54:02;27.48;;;25.15;;
577;SDS011;275;48.492;9.214;2022-12-10T14:56:30;28.20;;;25.63;;
577;SDS011;275;48.492;9.214;2022-12-10T14:59:01;30.17;;;27.58;;
577;SDS011;275;48.492;9.214;2022-12-10T15:01:34;29.65;;;27.05;;
577;SDS011;275;48.492;9.214;2022-12-10T15:04:11;31.95;;;29.05;;
577;SDS011;275;48.492;9.214;2022-12-10T15:06:40;31.55;;;28.65;;
577;SDS011;275;48.492;9.214;2022-12-10T15:09:11;35.88;;;32.75;;
577;SDS011;275;48.492;9.214;2022-12-10T15:11:41;36.28;;;32.97;;
577;SDS011;275;48.492;9.214;2022-12-10T15:14:10;34.80;;;31.70;;
577;SDS011;275;48.492;9.214;2022-12-10T15:16:43;41.25;;;37.60;;
577;SDS011;275;48.492;9.214;2022-12-10T15:19:18;33.58;;;30.58;;
577;SDS011;275;48.492;9.214;2022-12-10T15:21:47;38.00;;;34.55;;
577;SDS011;275;48.492;9.214;2022-12-10T15:24:17;42.67;;;38.58;;
577;SDS011;275;48.492;9.214;2022-12-10T15:26:47;36.65;;;33.30;;
577;SDS011;275;48.492;9.214;2022-12-10T15:29:15;35.90;;;32.50;;
577;SDS011;275;48.492;9.214;2022-12-10T15:31:57;36.65;;;33.25;;
577;SDS011;275;48.492;9.214;2022-12-10T15:34:27;38.35;;;35.03;;
577;SDS011;275;48.492;9.214;2022-12-10T15:36:56;40.08;;;36.38;;
577;SDS011;275;48.492;9.214;2022-12-10T15:39:27;40.15;;;36.45;;
577;SDS011;275;48.492;9.214;2022-12-10T15:41:55;41.45;;;37.65;;
577;SDS011;275;48.492;9.214;2022-12-10T15:44:25;49.97;;;44.95;;
577;SDS011;275;48.492;9.214;2022-12-10T15:46:58;44.05;;;39.90;;